CheckWX is a tool to help pilots better visualize weather data.  It is not intended as a substitute for an official pre-flight weather briefing.

00:54:45 UTC

EKYT METAR
Aalborg Airport
Aalborg, Denmark
Current

35 mins ago

EKYT 190020Z AUTO 11001G11KT 1400 R08L/P1500N R26R/P1500N BR BKN230/// 13/12 Q1012
Observed
Jun-19 @ 00:20 UTC
Wind
  • 110° at 1 KTS
  • Gusting to 11 KTS
Visibility
1,400 meters
Flight Rules
LIFR
Conditions
Mist
Cloud Levels
  • Broken at 23,000' AGL
Temperature
13°C / 55°F
Dewpoint
12°C / 54°F
Humidity
94%
Altimeter
29.88" Hg
Pressure
1011.92 hPa
Previous

37 mins ago

EKYT 190018Z AUTO 00000KT 1700 BCFG BKN230/// 13/12 Q1012
Observed
Jun-19 @ 00:18 UTC
Visibility
1,706 meters
Flight Rules
IFR
Conditions
Patches of Fog
Cloud Levels
  • Broken at 23,000' AGL
Temperature
13°C / 55°F
Dewpoint
12°C / 54°F
Humidity
94%
Altimeter
29.88" Hg
Pressure
1011.92 hPa
Previous

58 mins ago

EKYT 182357Z AUTO 00000KT 0650 R08L/P1500N R26R/P1500D FG SCT230/// 13/12 Q1013
Observed
Jun-18 @ 23:57 UTC
Visibility
644 meters
Flight Rules
LIFR
Conditions
Fog
Cloud Levels
  • Scattered at 23,000' AGL
Temperature
13°C / 55°F
Dewpoint
12°C / 54°F
Humidity
94%
Altimeter
29.91" Hg
Pressure
1012.92 hPa